Time;durP1;ratioP1;P1;durP2;ratioP2;P2;SDS_P1;SDS_P2;PMS_P1;PMS_P2;Temp;Humidity;BMP_temperature;BMP_pressure;BME280_temperature;BME280_humidity;BME280_pressure;Samples;Min_cycle;Max_cycle;Signal;HPM_P1;HPM_P2
2022/08/01 00:02:00;;;;;;;0.20;0.20;;;;;;;17.82;68.86;100133.69;5103569;28;20083;-67
2022/08/01 00:04:25;;;;;;;0.25;0.25;;;;;;;17.83;67.95;100140.63;5103200;28;20537;-64
2022/08/01 00:06:51;;;;;;;0.20;0.20;;;;;;;17.83;67.80;100143.25;5103481;28;20024;-65
2022/08/01 00:09:16;;;;;;;1.58;1.20;;;;;;;17.79;68.90;100141.69;5103195;28;20038;-68
2022/08/01 00:11:42;;;;;;;0.80;0.80;;;;;;;17.62;70.84;100136.31;5085304;28;20024;-69
2022/08/01 00:14:09;;;;;;;0.45;0.45;;;;;;;17.42;72.29;100130.09;5103307;28;20012;-71
2022/08/01 00:16:35;;;;;;;0.20;0.20;;;;;;;17.25;72.96;100138.69;5102996;28;20047;-72
2022/08/01 00:19:00;;;;;;;0.30;0.30;;;;;;;17.04;73.17;100134.22;5103304;28;20024;-73
2022/08/01 00:21:25;;;;;;;0.20;0.20;;;;;;;16.99;73.28;100125.66;5103465;28;20024;-72
2022/08/01 00:23:51;;;;;;;0.45;0.45;;;;;;;16.98;73.65;100137.09;5102988;28;20031;-72
2022/08/01 00:26:16;;;;;;;0.20;0.20;;;;;;;17.01;73.36;100136.97;5103183;28;20099;-72
2022/08/01 00:28:41;;;;;;;1.35;0.85;;;;;;;17.03;73.14;100137.72;5103095;28;20541;-72
2022/08/01 00:31:07;;;;;;;0.20;0.20;;;;;;;17.04;73.10;100128.97;5103260;28;20023;-72
2022/08/01 00:33:32;;;;;;;0.20;0.20;;;;;;;17.10;72.81;100127.88;5102931;28;20024;-72
2022/08/01 00:35:58;;;;;;;0.50;0.50;;;;;;;17.08;73.96;100125.34;5103226;28;20035;-71
2022/08/01 00:38:23;;;;;;;0.20;0.20;;;;;;;17.17;73.42;100124.09;5102923;28;20031;-72
2022/08/01 00:40:48;;;;;;;0.20;0.20;;;;;;;17.22;73.32;100119.53;5102788;28;20016;-72
2022/08/01 00:43:14;;;;;;;0.20;0.20;;;;;;;17.27;72.75;100119.31;5102697;28;20111;-71
2022/08/01 00:45:40;;;;;;;0.20;0.20;;;;;;;17.30;72.56;100121.81;5084656;28;20059;-71
2022/08/01 00:48:05;;;;;;;0.20;0.20;;;;;;;17.28;72.29;100115.81;5102715;28;20029;-72
2022/08/01 00:50:31;;;;;;;0.40;0.40;;;;;;;17.30;72.25;100111.34;5103042;28;20020;-71
2022/08/01 00:52:59;;;;;;;0.20;0.20;;;;;;;17.28;72.08;100113.19;5102764;28;20040;-72
2022/08/01 00:55:25;;;;;;;0.25;0.25;;;;;;;17.30;72.20;100108.72;5102699;28;20020;-72
2022/08/01 00:57:51;;;;;;;0.20;0.20;;;;;;;17.35;71.92;100103.25;5102944;28;20024;-72
2022/08/01 01:00:16;;;;;;;0.20;0.20;;;;;;;17.38;71.79;100105.75;5103125;28;20042;-71
2022/08/01 01:02:43;;;;;;;0.20;0.20;;;;;;;17.30;72.21;100092.97;5103903;28;20639;-73
2022/08/01 01:05:09;;;;;;;0.20;0.20;;;;;;;17.31;73.79;100104.31;5106809;28;20044;-75
2022/08/01 01:07:58;;;;;;;0.20;0.20;;;;;;;17.32;73.16;100103.41;5106566;28;20042;-73
2022/08/01 01:10:57;;;;;;;0.20;0.20;;;;;;;17.25;74.45;100094.94;5088032;28;20032;-72
2022/08/01 01:13:35;;;;;;;5.05;2.47;;;;;;;17.24;75.63;100103.72;5106791;28;20176;-72
2022/08/01 01:16:11;;;;;;;0.20;0.20;;;;;;;17.22;75.79;100105.56;5106459;28;20143;-73
2022/08/01 01:18:44;;;;;;;1.08;1.08;;;;;;;17.21;76.06;100103.84;5106402;28;20020;-71
2022/08/01 01:21:16;;;;;;;0.20;0.20;;;;;;;17.21;76.35;100104.72;5088329;28;20043;-71
2022/08/01 01:23:41;;;;;;;0.30;0.30;;;;;;;17.24;75.78;100100.25;5106228;28;20056;-71
2022/08/01 01:26:40;;;;;;;0.20;0.20;;;;;;;17.20;78.01;100094.28;5106236;28;20016;-70
2022/08/01 01:29:20;;;;;;;0.20;0.20;;;;;;;17.18;78.65;100093.47;5087849;28;20100;-70
2022/08/01 01:32:05;;;;;;;0.30;0.30;;;;;;;17.21;78.96;100096.84;5106341;28;20024;-69
2022/08/01 01:34:35;;;;;;;0.47;0.47;;;;;;;17.16;79.44;100084.81;5106182;28;20051;-70
2022/08/01 01:37:04;;;;;;;0.55;0.55;;;;;;;17.24;79.57;100095.84;5106045;28;20024;-70
2022/08/01 01:39:32;;;;;;;0.20;0.20;;;;;;;17.28;79.96;100091.34;5105803;28;20020;-70
2022/08/01 01:41:58;;;;;;;0.20;0.20;;;;;;;17.25;80.14;100087.09;5087678;28;20019;-70
2022/08/01 01:44:25;;;;;;;0.20;0.20;;;;;;;17.31;79.41;100092.06;5105731;28;20020;-71
2022/08/01 01:46:52;;;;;;;0.20;0.20;;;;;;;17.31;79.50;100089.44;5105717;28;20019;-73
2022/08/01 01:49:22;;;;;;;0.20;0.20;;;;;;;17.32;79.66;100085.88;5087352;28;20115;-70
2022/08/01 01:51:50;;;;;;;0.20;0.20;;;;;;;17.36;79.89;100088.38;5105624;28;20103;-73
2022/08/01 01:54:15;;;;;;;0.20;0.20;;;;;;;17.38;80.28;100087.38;5105233;28;20031;-71
2022/08/01 01:56:48;;;;;;;0.20;0.20;;;;;;;17.37;81.19;100079.59;5105531;28;20024;-70
2022/08/01 01:59:18;;;;;;;0.20;0.20;;;;;;;17.44;80.86;100078.44;5105615;28;20092;-72
2022/08/01 02:01:44;;;;;;;0.40;0.40;;;;;;;17.43;80.72;100074.06;5105526;28;20020;-70
2022/08/01 02:04:11;;;;;;;0.22;0.22;;;;;;;17.44;80.56;100074.00;5105494;28;20016;-69
2022/08/01 02:06:38;;;;;;;0.20;0.20;;;;;;;17.46;80.83;100071.31;5105436;28;20323;-68
2022/08/01 02:09:05;;;;;;;0.20;0.20;;;;;;;17.51;80.20;100077.22;5105321;28;20020;-68
2022/08/01 02:11:31;;;;;;;0.20;0.20;;;;;;;17.47;81.19;100067.78;5105197;28;20039;-68
2022/08/01 02:14:02;;;;;;;1.95;1.85;;;;;;;17.51;81.28;100071.97;5105003;28;20043;-68
2022/08/01 02:16:33;;;;;;;0.27;0.27;;;;;;;17.46;81.33;100059.06;5104881;28;20040;-68
2022/08/01 02:18:59;;;;;;;0.40;0.40;;;;;;;17.51;81.00;100068.53;5105067;28;20032;-68
2022/08/01 02:21:32;;;;;;;0.20;0.20;;;;;;;17.47;81.98;100059.94;5105021;28;20024;-68
2022/08/01 02:24:08;;;;;;;0.28;0.28;;;;;;;17.48;82.23;100063.41;5104996;28;20506;-67
2022/08/01 02:26:36;;;;;;;0.20;0.20;;;;;;;17.45;81.92;100048.63;5104961;28;20024;-68
2022/08/01 02:29:06;;;;;;;0.20;0.20;;;;;;;17.56;81.42;100053.41;5105126;28;20065;-67
2022/08/01 02:31:35;;;;;;;0.20;0.20;;;;;;;17.60;80.90;100060.25;5105117;28;20024;-67
2022/08/01 02:34:05;;;;;;;0.20;0.20;;;;;;;17.58;80.49;100049.81;5105219;28;20032;-67
2022/08/01 02:36:35;;;;;;;0.20;0.20;;;;;;;17.57;80.21;100053.34;5104876;28;20030;-67
2022/08/01 02:39:06;;;;;;;0.40;0.40;;;;;;;17.60;80.18;100052.38;5104846;28;20051;-67
2022/08/01 02:41:35;;;;;;;0.40;0.40;;;;;;;17.54;81.42;100048.22;5104463;28;20024;-68
2022/08/01 02:44:04;;;;;;;1.40;1.08;;;;;;;17.52;81.96;100042.22;5104581;28;20260;-69
2022/08/01 02:46:37;;;;;;;0.80;0.80;;;;;;;17.55;81.27;100049.94;5086600;28;20044;-69
2022/08/01 02:49:03;;;;;;;;;;;;;;;17.56;83.39;100056.03;5105192;28;20024;-69
2022/08/01 02:51:30;;;;;;;1.17;0.85;;;;;;;17.51;82.56;100047.53;5104449;28;20363;-68
2022/08/01 02:53:58;;;;;;;0.35;0.35;;;;;;;17.49;82.94;100046.75;5104262;28;20080;-68
2022/08/01 02:56:34;;;;;;;0.20;0.20;;;;;;;17.50;83.52;100044.03;5104135;28;20020;-69
2022/08/01 02:59:01;;;;;;;0.20;0.20;;;;;;;17.45;83.91;100038.13;5104419;28;20028;-68
2022/08/01 03:01:28;;;;;;;1.45;1.40;;;;;;;17.50;83.82;100045.81;5104415;28;20020;-68
2022/08/01 03:03:53;;;;;;;0.20;0.20;;;;;;;17.45;84.53;100043.38;5104467;28;20095;-68
2022/08/01 03:06:19;;;;;;;0.20;0.20;;;;;;;17.51;84.15;100048.38;5104213;28;20016;-68
2022/08/01 03:08:46;;;;;;;0.20;0.20;;;;;;;17.49;83.98;100038.88;5104378;28;20051;-67
2022/08/01 03:11:13;;;;;;;0.20;0.20;;;;;;;17.50;83.91;100036.19;5103925;28;20026;-67
2022/08/01 03:13:41;;;;;;;0.30;0.30;;;;;;;17.51;83.93;100048.38;5104195;28;20024;-67
2022/08/01 03:16:10;;;;;;;0.35;0.35;;;;;;;17.52;84.00;100043.97;5103835;28;20036;-67
2022/08/01 03:18:38;;;;;;;0.30;0.30;;;;;;;17.50;84.08;100048.44;5103956;28;20031;-67
2022/08/01 03:21:05;;;;;;;0.20;0.20;;;;;;;17.49;84.30;100041.50;5104225;28;20020;-67
2022/08/01 03:23:32;;;;;;;0.20;0.20;;;;;;;17.48;84.32;100045.88;5103910;28;20024;-66
2022/08/01 03:26:00;;;;;;;0.20;0.20;;;;;;;17.49;84.11;100034.47;5103282;28;20065;-66
2022/08/01 03:28:26;;;;;;;0.20;0.20;;;;;;;17.52;84.20;100044.84;5103889;28;20020;-66
2022/08/01 03:30:53;;;;;;;0.20;0.20;;;;;;;17.53;83.89;100041.28;5103884;28;20055;-66
2022/08/01 03:33:18;;;;;;;0.30;0.30;;;;;;;17.51;83.86;100037.88;5104045;28;20028;-66
2022/08/01 03:35:48;;;;;;;0.45;0.45;;;;;;;17.56;84.01;100040.28;5085366;28;20115;-66
2022/08/01 03:38:18;;;;;;;0.98;0.98;;;;;;;17.52;84.25;100034.34;5103873;28;20013;-66
2022/08/01 03:40:49;;;;;;;0.43;0.43;;;;;;;17.53;84.11;100041.28;5085754;28;20114;-66
2022/08/01 03:43:26;;;;;;;0.68;0.68;;;;;;;17.55;84.38;100047.31;5103701;28;20083;-66
2022/08/01 03:45:53;;;;;;;0.82;0.82;;;;;;;17.53;84.44;100036.03;5085331;28;20035;-66
2022/08/01 03:48:22;;;;;;;0.20;0.20;;;;;;;17.53;84.61;100040.44;5103489;28;20020;-65
2022/08/01 03:50:50;;;;;;;0.55;0.55;;;;;;;17.55;84.68;100039.47;5103538;28;20028;-67
2022/08/01 03:53:22;;;;;;;0.20;0.20;;;;;;;17.55;85.02;100033.34;5103289;28;20020;-68
2022/08/01 03:55:48;;;;;;;1.33;1.25;;;;;;;17.58;84.48;100034.06;5103262;28;20016;-67
2022/08/01 03:58:14;;;;;;;0.20;0.20;;;;;;;17.61;84.23;100029.59;5103557;28;20085;-67
2022/08/01 04:00:40;;;;;;;0.20;0.20;;;;;;;17.63;84.28;100036.50;5103521;28;20032;-67
2022/08/01 04:03:10;;;;;;;0.20;0.20;;;;;;;17.61;84.67;100032.22;5103331;28;20020;-67
2022/08/01 04:05:35;;;;;;;1.27;1.17;;;;;;;17.63;84.71;100035.63;5103374;28;20050;-67
2022/08/01 04:08:02;;;;;;;3.20;2.10;;;;;;;17.64;84.60;100032.06;5085041;28;20050;-67
2022/08/01 04:10:28;;;;;;;0.20;0.20;;;;;;;17.69;84.27;100036.22;5103224;28;20027;-67
2022/08/01 04:12:54;;;;;;;0.40;0.40;;;;;;;17.69;84.36;100044.09;5103361;28;20020;-67
2022/08/01 04:15:23;;;;;;;0.20;0.20;;;;;;;17.68;84.63;100041.53;5102966;28;20030;-67
2022/08/01 04:17:49;;;;;;;0.20;0.20;;;;;;;17.70;84.25;100037.06;5103089;28;20031;-67
2022/08/01 04:20:15;;;;;;;0.20;0.20;;;;;;;17.67;84.66;100035.44;5103247;28;20032;-67
2022/08/01 04:22:41;;;;;;;0.20;0.20;;;;;;;17.63;85.15;100033.88;5103168;28;20024;-67
2022/08/01 04:25:15;;;;;;;2.38;2.13;;;;;;;17.59;85.14;100020.03;5102646;28;20157;-67
2022/08/01 04:27:45;;;;;;;0.40;0.40;;;;;;;17.67;85.24;100034.56;5103210;28;20020;-67
2022/08/01 04:30:12;;;;;;;0.20;0.20;;;;;;;17.70;85.05;100034.44;5103529;28;20074;-67
2022/08/01 04:32:42;;;;;;;0.20;0.20;;;;;;;17.72;85.26;100022.09;5085016;28;20093;-67
2022/08/01 04:35:11;;;;;;;0.30;0.30;;;;;;;17.76;85.06;100026.31;5084913;28;20012;-67
2022/08/01 04:37:38;;;;;;;0.30;0.30;;;;;;;17.81;84.86;100034.81;5104110;28;20012;-67
2022/08/01 04:40:06;;;;;;;0.20;0.20;;;;;;;17.83;84.61;100038.22;5107044;28;20043;-67
2022/08/01 04:42:33;;;;;;;0.20;0.20;;;;;;;17.87;84.47;100027.56;5107075;28;20039;-67
2022/08/01 04:44:58;;;;;;;0.20;0.20;;;;;;;17.84;84.28;100024.16;5088818;28;20089;-67
2022/08/01 04:47:25;;;;;;;0.28;0.28;;;;;;;17.90;84.02;100033.56;5107104;28;20491;-67
2022/08/01 04:49:51;;;;;;;0.20;0.20;;;;;;;17.95;84.18;100028.94;5106906;28;20028;-67
2022/08/01 04:52:17;;;;;;;0.20;0.20;;;;;;;17.98;84.22;100027.09;5106689;28;20028;-67
2022/08/01 04:54:43;;;;;;;0.20;0.20;;;;;;;17.95;84.04;100034.22;5106543;28;20026;-67
2022/08/01 04:57:09;;;;;;;0.20;0.20;;;;;;;17.96;83.64;100032.41;5106722;28;20028;-67
2022/08/01 04:59:41;;;;;;;0.20;0.20;;;;;;;17.93;83.59;100028.16;5106917;28;20020;-67
2022/08/01 05:02:11;;;;;;;;;;;;;;;17.93;83.79;100035.19;5107590;28;20088;-67
2022/08/01 05:04:37;;;;;;;0.20;0.20;;;;;;;17.89;83.05;100036.25;5106730;28;19908;-67
2022/08/01 05:07:03;;;;;;;0.20;0.20;;;;;;;17.84;83.86;100044.34;5106677;28;20020;-67
2022/08/01 05:09:30;;;;;;;0.40;0.40;;;;;;;17.88;83.91;100043.25;5088261;28;20278;-67
2022/08/01 05:11:58;;;;;;;0.30;0.30;;;;;;;17.86;83.89;100046.91;5106606;28;20035;-67
2022/08/01 05:14:25;;;;;;;0.20;0.20;;;;;;;17.89;84.25;100047.59;5088352;28;20019;-67
2022/08/01 05:16:51;;;;;;;0.20;0.20;;;;;;;17.88;84.35;100045.88;5106289;28;20044;-67
2022/08/01 05:19:16;;;;;;;0.20;0.20;;;;;;;17.90;84.27;100048.44;5106305;28;20099;-67
2022/08/01 05:21:42;;;;;;;0.40;0.40;;;;;;;17.88;84.51;100045.88;5106305;28;20111;-67
2022/08/01 05:24:07;;;;;;;0.20;0.20;;;;;;;17.92;84.45;100038.75;5106183;28;20103;-66
2022/08/01 05:26:32;;;;;;;0.20;0.20;;;;;;;17.95;84.28;100049.09;5106318;28;20105;-68
2022/08/01 05:28:58;;;;;;;0.20;0.20;;;;;;;17.89;84.41;100041.50;5106400;28;20241;-68
2022/08/01 05:31:24;;;;;;;0.20;0.20;;;;;;;17.84;83.81;100047.78;5106308;28;20036;-69
2022/08/01 05:33:49;;;;;;;0.20;0.20;;;;;;;17.80;83.95;100051.50;5106181;28;20099;-68
2022/08/01 05:36:14;;;;;;;0.20;0.20;;;;;;;17.76;83.89;100049.94;5106190;28;20487;-68
2022/08/01 05:38:40;;;;;;;0.20;0.20;;;;;;;17.76;84.15;100052.56;5106210;28;20076;-68
2022/08/01 05:41:05;;;;;;;0.30;0.30;;;;;;;17.73;84.58;100050.06;5106023;28;20020;-67
2022/08/01 05:43:31;;;;;;;0.20;0.20;;;;;;;17.76;84.51;100049.94;5106034;28;20016;-67
2022/08/01 05:45:56;;;;;;;0.20;0.20;;;;;;;17.77;84.47;100058.63;5106140;28;20026;-67
2022/08/01 05:48:22;;;;;;;0.20;0.20;;;;;;;17.77;84.22;100054.25;5105333;28;20043;-67
2022/08/01 05:50:47;;;;;;;0.20;0.20;;;;;;;17.77;84.49;100058.63;5105865;28;20036;-65
2022/08/01 05:53:13;;;;;;;0.20;0.20;;;;;;;17.87;84.65;100052.06;5105539;28;20024;-66
2022/08/01 05:55:38;;;;;;;0.20;0.20;;;;;;;18.02;85.25;100050.50;5105457;28;20046;-65
2022/08/01 05:58:03;;;;;;;0.28;0.28;;;;;;;18.30;84.85;100051.91;5105711;28;20035;-66
2022/08/01 06:00:29;;;;;;;0.20;0.20;;;;;;;19.11;87.70;100051.63;5105656;28;20051;-66
2022/08/01 06:02:54;;;;;;;0.20;0.20;;;;;;;19.99;85.92;100054.16;5087349;28;20048;-66
2022/08/01 06:05:20;;;;;;;0.30;0.30;;;;;;;20.70;82.51;100056.50;5105374;28;20492;-66
2022/08/01 06:07:45;;;;;;;0.20;0.20;;;;;;;21.27;80.31;100056.78;5105561;28;20021;-66
2022/08/01 06:10:10;;;;;;;0.25;0.25;;;;;;;21.80;79.66;100058.97;5105272;28;20042;-67
2022/08/01 06:12:36;;;;;;;0.20;0.20;;;;;;;22.15;75.24;100041.84;5105402;28;20046;-67
2022/08/01 06:15:03;;;;;;;0.20;0.20;;;;;;;22.95;76.22;100047.38;5105433;28;20028;-67
2022/08/01 06:17:28;;;;;;;0.20;0.20;;;;;;;23.96;74.39;100045.84;5105316;28;20089;-67
2022/08/01 06:19:54;;;;;;;0.10;0.10;;;;;;;24.31;65.67;100048.75;5105165;28;20051;-67
2022/08/01 06:22:19;;;;;;;0.10;0.10;;;;;;;24.41;65.48;100049.78;5105253;28;20024;-67
2022/08/01 06:24:44;;;;;;;1.08;1.05;;;;;;;24.44;62.76;100048.72;5104949;28;20056;-67
2022/08/01 06:27:10;;;;;;;0.10;0.10;;;;;;;24.05;61.89;100052.31;5105418;28;20020;-67
2022/08/01 06:29:35;;;;;;;0.20;0.20;;;;;;;23.64;62.35;100064.88;5105086;28;20107;-67
2022/08/01 06:32:01;;;;;;;0.10;0.10;;;;;;;23.25;62.85;100063.00;5086884;28;20031;-66
2022/08/01 06:34:26;;;;;;;0.10;0.10;;;;;;;22.88;62.85;100065.47;5086601;28;20379;-67
2022/08/01 06:36:51;;;;;;;0.20;0.20;;;;;;;22.41;62.22;100069.25;5086709;28;20055;-66
2022/08/01 06:39:17;;;;;;;0.20;0.20;;;;;;;22.00;63.35;100075.38;5086488;28;20032;-66
2022/08/01 06:41:45;;;;;;;0.20;0.20;;;;;;;21.69;62.89;100078.09;5086399;28;20024;-66
2022/08/01 06:44:11;;;;;;;0.20;0.20;;;;;;;21.44;63.99;100079.53;5086510;28;20031;-66
2022/08/01 06:46:36;;;;;;;0.20;0.20;;;;;;;21.38;63.58;100064.94;5104755;28;20020;-67
2022/08/01 06:49:02;;;;;;;1.92;1.52;;;;;;;21.37;63.98;100075.59;5104437;28;20031;-67
2022/08/01 06:51:27;;;;;;;0.20;0.20;;;;;;;21.36;63.37;100076.53;5104878;28;20023;-66
2022/08/01 06:53:53;;;;;;;0.50;0.50;;;;;;;21.32;63.45;100080.28;5104368;28;20142;-67
2022/08/01 06:56:18;;;;;;;0.20;0.20;;;;;;;21.21;62.94;100071.22;5104445;28;20024;-67
2022/08/01 06:58:44;;;;;;;0.20;0.20;;;;;;;21.10;63.01;100071.00;5104677;28;20062;-66
2022/08/01 07:01:09;;;;;;;0.20;0.20;;;;;;;21.26;63.33;100081.50;5103732;28;20073;-67
2022/08/01 07:03:35;;;;;;;0.10;0.10;;;;;;;21.44;63.40;100081.34;5104416;28;20078;-67
2022/08/01 07:06:01;;;;;;;0.20;0.20;;;;;;;21.54;63.37;100079.84;5104216;28;20535;-68
2022/08/01 07:08:26;;;;;;;0.10;0.10;;;;;;;21.50;62.95;100070.44;5104099;28;20016;-68
2022/08/01 07:10:52;;;;;;;0.13;0.13;;;;;;;21.61;62.97;100075.06;5104031;28;20376;-67
2022/08/01 07:13:21;;;;;;;0.17;0.17;;;;;;;21.83;62.30;100081.69;5104181;28;20020;-68
2022/08/01 07:15:47;;;;;;;0.20;0.20;;;;;;;21.82;61.37;100088.75;5103932;28;20108;-68
2022/08/01 07:18:13;;;;;;;0.20;0.20;;;;;;;21.89;60.68;100084.81;5104203;28;20126;-68
2022/08/01 07:20:38;;;;;;;0.20;0.20;;;;;;;22.13;60.89;100091.31;5086019;28;20013;-68
2022/08/01 07:23:03;;;;;;;1.35;1.17;;;;;;;22.53;59.16;100088.81;5104008;28;20039;-67
2022/08/01 07:25:29;;;;;;;0.10;0.10;;;;;;;22.67;58.66;100084.44;5085535;28;20016;-67
2022/08/01 07:27:55;;;;;;;0.15;0.15;;;;;;;22.68;58.59;100083.50;5085798;28;20134;-68
2022/08/01 07:30:20;;;;;;;0.10;0.10;;;;;;;22.63;58.36;100082.94;5104010;28;20024;-67
2022/08/01 07:32:46;;;;;;;0.13;0.13;;;;;;;22.46;58.13;100086.66;5085582;28;20020;-67
2022/08/01 07:35:12;;;;;;;0.20;0.20;;;;;;;22.25;57.14;100082.59;5103976;28;20038;-67
2022/08/01 07:37:37;;;;;;;0.20;0.20;;;;;;;22.23;57.72;100081.88;5103762;28;20101;-68
2022/08/01 07:40:04;;;;;;;0.20;0.20;;;;;;;22.41;57.71;100077.19;5103715;28;20028;-68
2022/08/01 07:42:30;;;;;;;0.80;0.80;;;;;;;22.69;58.18;100082.53;5103871;28;20046;-71
2022/08/01 07:44:55;;;;;;;0.20;0.20;;;;;;;22.99;56.80;100077.97;5103516;28;20024;-71
2022/08/01 07:47:25;;;;;;;0.20;0.20;;;;;;;22.99;56.40;100076.19;5085470;28;20031;-72
2022/08/01 07:49:50;;;;;;;0.20;0.20;;;;;;;22.91;55.45;100086.44;5103728;28;20028;-73
2022/08/01 07:52:16;;;;;;;0.20;0.20;;;;;;;22.59;56.09;100082.28;5103574;28;20069;-67
2022/08/01 07:54:41;;;;;;;0.20;0.20;;;;;;;22.63;56.60;100077.66;5103289;28;20050;-74
2022/08/01 07:57:07;;;;;;;0.20;0.20;;;;;;;23.49;56.65;100075.56;5103598;28;20020;-77
2022/08/01 07:59:32;;;;;;;0.20;0.20;;;;;;;24.75;53.71;100079.16;5103149;28;20081;-71
2022/08/01 08:01:58;;;;;;;0.65;0.40;;;;;;;25.94;53.53;100069.44;5103601;28;20074;-76
2022/08/01 08:04:24;;;;;;;5.47;2.05;;;;;;;27.28;51.27;100081.78;5103477;28;20050;-74
2022/08/01 08:06:50;;;;;;;0.10;0.10;;;;;;;28.25;47.07;100089.53;5103334;28;20047;-66
2022/08/01 08:09:15;;;;;;;0.10;0.10;;;;;;;29.12;44.77;100075.63;5103578;28;20020;-76
2022/08/01 08:11:44;;;;;;;0.10;0.10;;;;;;;29.24;42.99;100081.63;5084993;28;20056;-75
2022/08/01 08:14:10;;;;;;;0.10;0.10;;;;;;;28.85;44.11;100082.50;5103317;28;20024;-73
2022/08/01 08:16:35;;;;;;;0.10;0.10;;;;;;;28.36;43.11;100081.47;5103044;28;20079;-73
2022/08/01 08:19:01;;;;;;;0.10;0.10;;;;;;;27.91;44.21;100085.38;5103135;28;20027;-72
2022/08/01 08:21:27;;;;;;;0.10;0.10;;;;;;;27.41;44.73;100089.59;5103452;28;20024;-64
2022/08/01 08:26:37;;;;;;;0.15;0.15;;;;;;;27.51;43.90;100092.31;5103143;28;20502;-67
2022/08/01 08:29:02;;;;;;;0.10;0.10;;;;;;;27.73;42.69;100093.16;5103120;28;20036;-64
2022/08/01 08:31:28;;;;;;;0.10;0.10;;;;;;;27.42;43.06;100086.78;5103198;28;20024;-64
2022/08/01 08:33:54;;;;;;;0.10;0.10;;;;;;;27.63;43.45;100088.59;5102960;28;20020;-62
2022/08/01 08:36:19;;;;;;;0.20;0.20;;;;;;;27.87;41.69;100094.63;5103385;28;20027;-63
2022/08/01 08:38:44;;;;;;;0.10;0.10;;;;;;;27.84;42.00;100090.41;5103074;28;20024;-63
2022/08/01 08:41:10;;;;;;;0.13;0.13;;;;;;;28.14;40.70;100088.69;5103057;28;20016;-64
2022/08/01 08:43:35;;;;;;;1.65;1.45;;;;;;;28.76;39.95;100089.50;5103097;28;20032;-63
2022/08/01 08:46:02;;;;;;;0.10;0.10;;;;;;;29.38;39.43;100091.88;5103213;28;20031;-64
2022/08/01 08:48:28;;;;;;;0.10;0.10;;;;;;;29.96;37.42;100091.84;5103024;28;20479;-64
2022/08/01 08:50:55;;;;;;;0.10;0.10;;;;;;;29.72;36.03;100095.03;5103030;28;20144;-63
2022/08/01 08:53:20;;;;;;;0.10;0.10;;;;;;;28.93;37.43;100101.34;5102944;28;20035;-63
2022/08/01 08:55:47;;;;;;;0.30;0.30;;;;;;;28.80;37.83;100105.09;5102675;28;20103;-65
2022/08/01 08:58:14;;;;;;;0.10;0.10;;;;;;;28.47;37.61;100107.19;5084784;28;20058;-63
2022/08/01 09:00:40;;;;;;;8.57;0.90;;;;;;;27.83;37.74;100105.56;5084860;28;20031;-66
2022/08/01 09:03:06;;;;;;;0.10;0.10;;;;;;;27.50;38.08;100103.94;5103028;28;20028;-63
2022/08/01 09:05:31;;;;;;;0.10;0.10;;;;;;;27.71;38.52;100091.47;5102832;28;20084;-64
2022/08/01 09:07:56;;;;;;;0.43;0.43;;;;;;;28.35;38.86;100101.13;5102816;28;20180;-64
2022/08/01 09:10:22;;;;;;;0.10;0.10;;;;;;;28.97;37.96;100110.78;5102682;28;20195;-63
2022/08/01 09:13:10;;;;;;;0.10;0.10;;;;;;;29.59;36.75;100106.91;5102773;28;20032;-63
2022/08/01 09:15:46;;;;;;;0.68;0.68;;;;;;;29.81;35.91;100104.84;5102343;28;20028;-65
2022/08/01 09:18:33;;;;;;;0.10;0.10;;;;;;;29.32;35.77;100109.34;5102560;28;20032;-63
2022/08/01 09:21:05;;;;;;;0.30;0.30;;;;;;;29.01;35.93;100108.69;5102542;28;20012;-64
2022/08/01 09:23:35;;;;;;;0.40;0.40;;;;;;;29.26;36.43;100117.09;5103557;28;20183;-64
2022/08/01 09:26:00;;;;;;;0.10;0.10;;;;;;;29.86;34.59;100113.28;5106202;28;20016;-64
2022/08/01 09:28:29;;;;;;;0.10;0.10;;;;;;;29.84;33.33;100109.94;5106382;28;20076;-64
2022/08/01 09:30:58;;;;;;;0.10;0.10;;;;;;;29.91;33.68;100118.19;5106111;28;20016;-64
2022/08/01 09:33:24;;;;;;;0.60;0.30;;;;;;;30.22;32.98;100109.09;5106166;28;20080;-63
2022/08/01 09:35:57;;;;;;;0.10;0.10;;;;;;;30.22;32.38;100117.13;5106275;28;20343;-65
2022/08/01 09:38:26;;;;;;;0.10;0.10;;;;;;;29.92;33.88;100109.22;5106142;28;20024;-65
2022/08/01 09:40:54;;;;;;;0.10;0.10;;;;;;;30.07;33.80;100112.22;5106015;28;20024;-64
2022/08/01 09:43:21;;;;;;;0.10;0.10;;;;;;;30.08;33.55;100116.59;5106348;28;20020;-65
2022/08/01 09:45:47;;;;;;;0.10;0.10;;;;;;;29.53;34.07;100119.00;5106242;28;20331;-65
2022/08/01 09:48:13;;;;;;;0.25;0.25;;;;;;;29.42;33.80;100106.66;5106189;28;20020;-64
2022/08/01 09:50:44;;;;;;;0.10;0.10;;;;;;;29.91;33.61;100110.19;5106017;28;20024;-65
2022/08/01 09:53:11;;;;;;;0.20;0.20;;;;;;;30.06;33.24;100108.69;5105733;28;20052;-65
2022/08/01 09:55:40;;;;;;;0.10;0.10;;;;;;;30.73;32.79;100120.19;5087243;28;20028;-64
2022/08/01 09:58:07;;;;;;;0.10;0.10;;;;;;;30.61;32.20;100124.91;5105724;28;20327;-64
2022/08/01 10:00:34;;;;;;;0.10;0.10;;;;;;;29.29;33.42;100124.81;5105660;28;20039;-64
2022/08/01 10:03:18;;;;;;;0.10;0.10;;;;;;;29.11;34.51;100130.06;5105957;28;20040;-64
2022/08/01 10:05:44;;;;;;;0.10;0.10;;;;;;;29.61;33.92;100125.47;5105559;28;20649;-64
2022/08/01 10:08:10;;;;;;;0.10;0.10;;;;;;;29.67;33.78;100130.25;5105719;28;20236;-65
2022/08/01 10:10:35;;;;;;;0.10;0.10;;;;;;;29.61;33.66;100137.03;5105519;28;20027;-65
2022/08/01 10:13:02;;;;;;;0.10;0.10;;;;;;;29.84;32.90;100144.72;5105530;28;20049;-64
2022/08/01 10:15:28;;;;;;;0.40;0.40;;;;;;;29.39;33.14;100139.03;5087115;28;20016;-64
2022/08/01 10:17:56;;;;;;;0.93;0.93;;;;;;;28.73;33.76;100133.38;5105455;28;20103;-64
2022/08/01 10:20:26;;;;;;;0.10;0.10;;;;;;;28.48;34.15;100140.06;5105248;28;20042;-65
2022/08/01 10:22:53;;;;;;;0.10;0.10;;;;;;;28.47;34.44;100141.88;5105314;28;20074;-65
2022/08/01 10:25:21;;;;;;;0.95;0.95;;;;;;;28.78;34.04;100141.81;5105025;28;20064;-65
2022/08/01 10:27:49;;;;;;;1.25;1.00;;;;;;;29.01;33.08;100140.75;5105027;28;20063;-65
2022/08/01 10:30:15;;;;;;;0.30;0.30;;;;;;;28.89;32.41;100143.50;5086728;28;20047;-65
2022/08/01 10:32:42;;;;;;;0.10;0.10;;;;;;;27.55;34.18;100149.72;5105270;28;20406;-65
2022/08/01 10:35:14;;;;;;;0.55;0.55;;;;;;;27.34;35.65;100150.56;5105019;28;20090;-64
2022/08/01 10:37:40;;;;;;;0.30;0.30;;;;;;;28.16;34.26;100148.09;5105382;28;20048;-65
2022/08/01 10:40:06;;;;;;;0.85;0.43;;;;;;;28.61;32.67;100143.31;5104763;28;20027;-64
2022/08/01 10:42:33;;;;;;;2.85;1.20;;;;;;;28.81;32.39;100135.34;5105152;28;20031;-65
2022/08/01 10:44:59;;;;;;;0.10;0.10;;;;;;;29.02;31.96;100139.75;5104768;28;20020;-65
2022/08/01 10:47:33;;;;;;;0.10;0.10;;;;;;;28.83;32.21;100136.88;5104780;28;20016;-65
2022/08/01 10:50:16;;;;;;;20.83;1.75;;;;;;;28.80;32.45;100134.50;5104883;28;20024;-65
2022/08/01 10:52:41;;;;;;;0.10;0.10;;;;;;;28.69;33.03;100140.81;5104529;28;20368;-64
2022/08/01 10:55:11;;;;;;;0.10;0.10;;;;;;;28.99;32.27;100137.34;5104288;28;20034;-64
2022/08/01 10:57:47;;;;;;;0.10;0.10;;;;;;;29.32;32.58;100145.91;5104566;28;20051;-65
2022/08/01 11:00:20;;;;;;;0.10;0.10;;;;;;;29.83;31.29;100143.03;5104599;28;20437;-65
2022/08/01 11:03:00;;;;;;;0.10;0.10;;;;;;;29.55;29.93;100151.78;5104414;28;20039;-65
2022/08/01 11:05:28;;;;;;;0.10;0.10;;;;;;;28.79;31.06;100145.31;5104117;28;20024;-64
2022/08/01 11:07:54;;;;;;;0.30;0.30;;;;;;;28.41;31.98;100156.63;5104433;28;20022;-64
2022/08/01 11:10:39;;;;;;;0.10;0.10;;;;;;;27.69;32.78;100173.41;5104300;28;20020;-64
2022/08/01 11:13:07;;;;;;;0.10;0.10;;;;;;;26.98;33.77;100164.13;5104216;28;20027;-65
2022/08/01 11:15:34;;;;;;;0.10;0.10;;;;;;;26.19;34.66;100156.13;5104104;28;20073;-65
2022/08/01 11:18:28;;;;;;;0.10;0.10;;;;;;;25.61;36.14;100159.63;5104377;28;20024;-64
2022/08/01 11:20:59;;;;;;;0.38;0.38;;;;;;;25.39;37.56;100166.59;5104224;28;20020;-65
2022/08/01 11:23:27;;;;;;;;;;;;;;;25.25;37.58;100167.63;5104542;28;20023;-65
2022/08/01 11:25:53;;;;;;;0.10;0.10;;;;;;;24.97;38.51;100170.50;5103827;28;20065;-65
2022/08/01 11:28:24;;;;;;;0.10;0.10;;;;;;;24.70;39.36;100179.50;5104079;28;20039;-65
2022/08/01 11:30:51;;;;;;;0.10;0.10;;;;;;;24.52;39.99;100173.72;5104052;28;20024;-64
2022/08/01 11:33:19;;;;;;;0.10;0.10;;;;;;;24.41;40.19;100166.50;5104038;28;20032;-64